createdAt,value
2019-03-28T00:00:58.308Z,2.45
2019-03-28T00:03:27.270Z,2.90
2019-03-28T00:05:56.132Z,2.20
2019-03-28T00:08:24.936Z,2.67
2019-03-28T00:10:53.819Z,2.47
2019-03-28T00:13:22.635Z,2.10
2019-03-28T00:15:51.752Z,2.58
2019-03-28T00:18:20.583Z,2.70
2019-03-28T00:20:49.395Z,2.08
2019-03-28T00:23:28.779Z,1.85
2019-03-28T00:25:57.590Z,2.67
2019-03-28T00:28:26.386Z,2.35
2019-03-28T00:30:55.249Z,2.87
2019-03-28T00:33:24.177Z,2.20
2019-03-28T00:35:53.011Z,2.02
2019-03-28T00:38:21.848Z,1.82
2019-03-28T00:40:50.642Z,1.60
2019-03-28T00:43:19.442Z,1.82
2019-03-28T00:45:48.278Z,2.02
2019-03-28T00:48:17.079Z,1.95
2019-03-28T00:50:45.878Z,1.67
2019-03-28T00:53:14.705Z,1.70
2019-03-28T00:55:43.509Z,1.72
2019-03-28T00:58:12.313Z,1.70
2019-03-28T01:00:41.259Z,2.10
2019-03-28T01:03:10.066Z,1.70
2019-03-28T01:05:38.881Z,1.52
2019-03-28T01:08:07.695Z,1.98
2019-03-28T01:10:36.498Z,1.60
2019-03-28T01:13:05.307Z,1.75
2019-03-28T01:15:34.144Z,2.02
2019-03-28T01:18:02.951Z,1.92
2019-03-28T01:20:31.755Z,1.75
2019-03-28T01:23:00.586Z,1.60
2019-03-28T01:25:29.401Z,2.02
2019-03-28T01:27:58.211Z,1.72
2019-03-28T01:30:27.029Z,1.40
2019-03-28T01:32:55.832Z,1.70
2019-03-28T01:35:24.625Z,1.60
2019-03-28T01:37:54.373Z,2.10
2019-03-28T01:40:23.294Z,1.95
2019-03-28T01:42:52.106Z,2.27
2019-03-28T01:45:20.943Z,2.45
2019-03-28T01:47:49.754Z,7.42
2019-03-28T01:50:18.591Z,10.38
2019-03-28T01:52:47.505Z,2.90
2019-03-28T01:55:16.324Z,8.55
2019-03-28T01:57:45.137Z,4.58
2019-03-28T02:00:14.280Z,3.52
2019-03-28T02:02:43.085Z,2.72
2019-03-28T02:05:11.989Z,2.22
2019-03-28T02:07:40.827Z,3.15
2019-03-28T02:10:09.835Z,1.50
2019-03-28T02:12:38.660Z,2.52
2019-03-28T02:15:08.889Z,2.75
2019-03-28T02:17:37.688Z,1.77
2019-03-28T02:20:10.460Z,1.90
2019-03-28T02:22:39.471Z,3.02
2019-03-28T02:25:08.880Z,2.35
2019-03-28T02:27:37.690Z,2.08
2019-03-28T02:30:08.526Z,1.95
2019-03-28T02:32:37.463Z,2.20
2019-03-28T02:35:06.763Z,2.12
2019-03-28T02:37:35.599Z,2.15
2019-03-28T02:40:07.026Z,2.52
2019-03-28T02:42:35.921Z,2.45
2019-03-28T02:45:08.723Z,2.22
2019-03-28T02:47:37.517Z,2.58
2019-03-28T02:50:06.971Z,2.10
2019-03-28T02:52:35.773Z,2.80
2019-03-28T02:55:07.095Z,3.12
2019-03-28T02:57:41.547Z,2.58
2019-03-28T03:00:08.607Z,2.42
2019-03-28T03:02:37.412Z,2.10
2019-03-28T03:05:08.610Z,2.22
2019-03-28T03:07:37.451Z,2.02
2019-03-28T03:10:07.968Z,2.10
2019-03-28T03:12:36.769Z,2.70
2019-03-28T03:15:07.418Z,2.90
2019-03-28T03:17:36.225Z,3.05
2019-03-28T03:20:06.634Z,3.25
2019-03-28T03:22:35.477Z,2.50
2019-03-28T03:25:06.263Z,2.52
2019-03-28T03:27:35.088Z,3.27
2019-03-28T03:30:06.111Z,3.37
2019-03-28T03:32:34.901Z,2.35
2019-03-28T03:35:03.734Z,3.00
2019-03-28T03:37:34.421Z,2.40
2019-03-28T03:40:03.506Z,2.77
2019-03-28T03:42:32.323Z,2.98
2019-03-28T03:45:01.238Z,2.87
2019-03-28T03:47:30.038Z,3.02
2019-03-28T03:49:58.847Z,2.12
2019-03-28T03:52:27.688Z,2.35
2019-03-28T03:54:56.492Z,2.15
2019-03-28T03:57:25.312Z,2.75
2019-03-28T03:59:54.152Z,3.00
2019-03-28T04:02:22.946Z,2.52
2019-03-28T04:04:51.744Z,2.60
2019-03-28T04:07:20.577Z,2.85
2019-03-28T04:09:49.381Z,2.62
2019-03-28T04:12:18.219Z,2.80
2019-03-28T04:14:47.027Z,2.70
2019-03-28T04:17:15.824Z,2.87
2019-03-28T04:19:44.635Z,3.08
2019-03-28T04:22:13.474Z,2.20
2019-03-28T04:24:42.271Z,2.35
2019-03-28T04:27:11.227Z,2.37
2019-03-28T04:29:40.039Z,3.25
2019-03-28T04:32:08.842Z,2.37
2019-03-28T04:34:37.718Z,2.15
2019-03-28T04:37:06.757Z,2.70
2019-03-28T04:39:35.649Z,1.95
2019-03-28T04:42:04.496Z,21.25
2019-03-28T04:44:36.329Z,3.20
2019-03-28T04:47:05.144Z,2.75
2019-03-28T04:49:33.971Z,2.40
2019-03-28T04:52:02.859Z,2.45
2019-03-28T04:54:31.704Z,2.20
2019-03-28T04:57:00.509Z,2.67
2019-03-28T04:59:29.310Z,2.40
2019-03-28T05:02:03.006Z,3.20
2019-03-28T05:04:28.603Z,2.65
2019-03-28T05:06:57.424Z,2.90
2019-03-28T05:09:26.286Z,3.20
2019-03-28T05:11:55.127Z,2.60
2019-03-28T05:14:23.938Z,2.70
2019-03-28T05:16:52.730Z,2.30
2019-03-28T05:19:21.732Z,2.10
2019-03-28T05:21:50.526Z,2.52
2019-03-28T05:24:19.326Z,2.62
2019-03-28T05:26:48.193Z,2.17
2019-03-28T05:29:17.867Z,2.33
2019-03-28T05:31:46.672Z,2.58
2019-03-28T05:34:15.507Z,2.47
2019-03-28T05:36:44.424Z,2.33
2019-03-28T05:39:14.550Z,2.90
2019-03-28T05:41:43.405Z,3.17
2019-03-28T05:44:12.211Z,2.90
2019-03-28T05:46:41.058Z,1.95
2019-03-28T05:49:09.859Z,1.80
2019-03-28T05:51:38.659Z,2.30
2019-03-28T05:54:07.453Z,1.90
2019-03-28T05:56:36.284Z,2.33
2019-03-28T05:59:10.819Z,2.08
2019-03-28T06:01:35.591Z,2.08
2019-03-28T06:04:04.579Z,2.10
2019-03-28T06:06:33.374Z,2.45
2019-03-28T06:09:02.179Z,2.20
2019-03-28T06:11:31.249Z,2.85
2019-03-28T06:14:00.050Z,2.50
2019-03-28T06:16:28.862Z,2.40
2019-03-28T06:18:57.690Z,2.60
2019-03-28T06:21:26.489Z,2.10
2019-03-28T06:23:55.298Z,2.20
2019-03-28T06:26:24.135Z,2.10
2019-03-28T06:28:52.959Z,1.98
2019-03-28T06:31:21.767Z,2.25
2019-03-28T06:33:50.565Z,1.87
2019-03-28T06:36:20.837Z,1.80
2019-03-28T06:38:50.221Z,1.90
2019-03-28T06:41:19.171Z,2.10
2019-03-28T06:43:48.309Z,1.80
2019-03-28T06:46:17.181Z,1.67
2019-03-28T06:48:46.065Z,2.65
2019-03-28T06:51:14.881Z,2.20
2019-03-28T06:53:43.713Z,1.82
2019-03-28T06:56:12.512Z,1.77
2019-03-28T06:58:41.309Z,1.92
2019-03-28T07:01:10.142Z,1.70
2019-03-28T07:03:38.946Z,1.80
2019-03-28T07:06:07.754Z,1.90
2019-03-28T07:08:36.592Z,1.92
2019-03-28T07:11:05.409Z,1.80
2019-03-28T07:13:34.211Z,1.60
2019-03-28T07:16:03.382Z,1.67
2019-03-28T07:18:32.385Z,1.70
2019-03-28T07:21:01.577Z,1.98
2019-03-28T07:23:30.714Z,1.60
2019-03-28T07:25:59.515Z,2.22
2019-03-28T07:28:29.049Z,1.70
2019-03-28T07:30:57.883Z,1.72
2019-03-28T07:33:26.682Z,1.50
2019-03-28T07:35:55.489Z,1.80
2019-03-28T07:38:24.436Z,1.80
2019-03-28T07:40:53.554Z,1.90
2019-03-28T07:43:25.090Z,1.50
2019-03-28T07:45:53.372Z,1.72
2019-03-28T07:48:22.364Z,1.57
2019-03-28T07:50:51.320Z,1.30
2019-03-28T07:53:21.470Z,1.45
2019-03-28T07:55:50.427Z,1.30
2019-03-28T07:58:19.234Z,1.40
2019-03-28T08:00:48.029Z,1.35
2019-03-28T08:03:16.876Z,1.77
2019-03-28T08:05:45.687Z,2.12
2019-03-28T08:08:14.599Z,1.65
2019-03-28T08:10:43.623Z,1.42
2019-03-28T08:13:12.421Z,1.07
2019-03-28T08:15:41.335Z,1.10
2019-03-28T08:18:10.170Z,1.40
2019-03-28T08:20:38.985Z,1.42
2019-03-28T08:23:07.796Z,1.27
2019-03-28T08:25:36.748Z,1.25
2019-03-28T08:28:05.561Z,1.17
2019-03-28T08:30:38.727Z,1.17
2019-03-28T08:33:08.966Z,1.60
2019-03-28T08:35:38.168Z,1.47
2019-03-28T08:38:09.973Z,1.80
2019-03-28T08:40:40.125Z,1.30
2019-03-28T08:43:09.073Z,1.30
2019-03-28T08:45:37.879Z,1.60
2019-03-28T08:48:06.760Z,1.30
2019-03-28T08:50:35.570Z,1.02
2019-03-28T08:53:04.702Z,1.60
2019-03-28T08:55:33.518Z,2.12
2019-03-28T08:58:02.364Z,1.10
2019-03-28T09:00:35.257Z,1.35
2019-03-28T09:03:01.968Z,0.90
2019-03-28T09:05:30.791Z,1.20
2019-03-28T09:07:59.649Z,1.40
2019-03-28T09:10:28.436Z,1.10
2019-03-28T09:12:57.320Z,1.10
2019-03-28T09:15:26.165Z,1.47
2019-03-28T09:17:54.972Z,1.15
2019-03-28T09:20:23.782Z,1.10
2019-03-28T09:22:52.715Z,1.10
2019-03-28T09:25:21.608Z,1.20
2019-03-28T09:27:51.808Z,1.37
2019-03-28T09:30:47.303Z,1.62
2019-03-28T09:33:05.918Z,1.87
2019-03-28T09:35:34.832Z,1.60
2019-03-28T09:38:03.879Z,1.67
2019-03-28T09:40:32.677Z,1.72
2019-03-28T09:43:01.535Z,1.67
2019-03-28T09:45:30.477Z,1.72
2019-03-28T09:48:00.821Z,1.42
2019-03-28T09:50:31.291Z,1.52
2019-03-28T09:53:01.286Z,1.45
2019-03-28T09:55:30.103Z,1.45
2019-03-28T09:57:59.481Z,1.40
2019-03-28T10:00:28.309Z,1.10
2019-03-28T10:02:57.100Z,1.20
2019-03-28T10:05:26.053Z,1.12
2019-03-28T10:07:54.859Z,1.87
2019-03-28T10:10:23.646Z,1.22
2019-03-28T10:12:52.486Z,1.30
2019-03-28T10:15:21.300Z,1.60
2019-03-28T10:17:50.122Z,1.30
2019-03-28T10:20:19.004Z,1.40
2019-03-28T10:22:47.748Z,0.93
2019-03-28T10:25:16.550Z,1.50
2019-03-28T10:27:45.393Z,1.07
2019-03-28T10:30:15.907Z,1.62
2019-03-28T10:32:45.009Z,1.22
2019-03-28T10:35:16.795Z,1.02
2019-03-28T10:37:45.595Z,1.07
2019-03-28T10:40:14.417Z,1.05
2019-03-28T10:42:43.267Z,1.00
2019-03-28T10:45:12.063Z,1.20
2019-03-28T10:47:40.869Z,1.10
2019-03-28T10:50:09.715Z,0.95
2019-03-28T10:52:38.503Z,1.05
2019-03-28T10:55:07.506Z,1.10
2019-03-28T10:57:36.363Z,1.30
2019-03-28T11:00:09.025Z,1.40
2019-03-28T11:02:38.728Z,1.20
2019-03-28T11:05:08.076Z,1.77
2019-03-28T11:07:38.162Z,1.65
2019-03-28T11:10:07.839Z,1.80
2019-03-28T11:12:36.801Z,2.10
2019-03-28T11:15:06.913Z,1.45
2019-03-28T11:17:35.919Z,1.80
2019-03-28T11:20:06.718Z,1.30
2019-03-28T11:22:35.549Z,1.30
2019-03-28T11:25:25.107Z,1.00
2019-03-28T11:27:53.923Z,0.88
2019-03-28T11:30:22.752Z,1.12
2019-03-28T11:32:51.591Z,1.60
2019-03-28T11:35:20.406Z,1.52
2019-03-28T11:37:49.214Z,1.67
2019-03-28T11:40:18.047Z,1.22
2019-03-28T11:42:46.868Z,1.20
2019-03-28T11:45:15.806Z,1.25
2019-03-28T11:47:44.710Z,1.10
2019-03-28T11:50:16.983Z,1.12
2019-03-28T11:52:44.311Z,1.50
2019-03-28T11:55:13.157Z,1.65
2019-03-28T11:57:42.005Z,1.40
2019-03-28T12:00:13.428Z,1.47
2019-03-28T12:02:42.413Z,1.10
2019-03-28T12:05:11.622Z,1.37
2019-03-28T12:07:41.706Z,1.02
2019-03-28T12:10:14.094Z,1.20
2019-03-28T12:12:43.061Z,1.40
2019-03-28T12:15:13.842Z,1.90
2019-03-28T12:17:42.684Z,1.52
2019-03-28T12:20:12.181Z,1.47
2019-03-28T12:22:41.012Z,1.70
2019-03-28T12:25:10.268Z,2.00
2019-03-28T12:27:39.108Z,1.77
2019-03-28T12:30:10.341Z,1.98
2019-03-28T12:32:39.595Z,2.00
2019-03-28T12:35:08.906Z,1.67
2019-03-28T12:37:37.708Z,1.80
2019-03-28T12:40:10.470Z,1.77
2019-03-28T12:42:39.298Z,1.45
2019-03-28T12:45:12.318Z,1.85
2019-03-28T12:47:42.945Z,2.55
2019-03-28T12:50:14.970Z,1.62
2019-03-28T12:52:44.895Z,1.90
2019-03-28T12:55:15.483Z,2.40
2019-03-28T12:57:44.324Z,2.47
2019-03-28T13:00:14.268Z,2.50
2019-03-28T13:02:43.092Z,1.98
2019-03-28T13:05:12.785Z,2.40
2019-03-28T13:07:41.603Z,4.50
2019-03-28T13:10:11.449Z,5.90
2019-03-28T13:12:40.258Z,6.10
2019-03-28T13:15:09.380Z,8.43
2019-03-28T13:17:38.210Z,7.85
2019-03-28T13:20:09.176Z,8.18
2019-03-28T13:22:38.001Z,8.43
2019-03-28T13:25:07.715Z,8.13
2019-03-28T13:27:36.947Z,7.22
2019-03-28T13:30:08.870Z,7.60
2019-03-28T13:32:42.117Z,6.15
2019-03-28T13:35:08.671Z,5.60
2019-03-28T13:37:37.472Z,5.75
2019-03-28T13:40:10.066Z,7.72
2019-03-28T13:42:39.205Z,9.10
2019-03-28T13:45:10.679Z,8.50
2019-03-28T13:47:39.498Z,6.92
2019-03-28T13:50:10.571Z,9.00
2019-03-28T13:52:39.377Z,8.88
2019-03-28T13:55:08.238Z,8.70
2019-03-28T13:57:37.044Z,6.20
2019-03-28T14:00:10.187Z,4.60
2019-03-28T14:02:39.031Z,4.33
2019-03-28T14:05:08.156Z,5.33
2019-03-28T14:07:37.215Z,5.00
2019-03-28T14:10:06.647Z,3.90
2019-03-28T14:12:35.464Z,5.42
2019-03-28T14:15:05.279Z,5.15
2019-03-28T14:17:35.094Z,5.22
2019-03-28T14:20:06.055Z,5.30
2019-03-28T14:22:34.856Z,4.40
2019-03-28T14:25:04.194Z,3.45
2019-03-28T14:27:33.587Z,2.80
2019-03-28T14:30:02.402Z,4.22
2019-03-28T14:32:33.069Z,4.78
2019-03-28T14:35:01.702Z,4.65
2019-03-28T14:37:30.523Z,3.27
2019-03-28T14:39:59.333Z,2.60
2019-03-28T14:42:28.149Z,3.85
2019-03-28T14:44:56.950Z,2.77
2019-03-28T14:47:25.756Z,3.45
2019-03-28T14:49:54.639Z,3.33
2019-03-28T14:52:23.415Z,2.50
2019-03-28T14:54:52.224Z,3.00
2019-03-28T14:57:21.354Z,3.10
2019-03-28T14:59:50.704Z,2.92
2019-03-28T15:02:19.514Z,4.60
2019-03-28T15:04:48.360Z,3.47
2019-03-28T15:07:17.170Z,3.52
2019-03-28T15:09:46.124Z,2.92
2019-03-28T15:12:14.954Z,4.15
2019-03-28T15:14:43.767Z,3.42
2019-03-28T15:17:12.570Z,2.77
2019-03-28T15:19:41.409Z,3.17
2019-03-28T15:22:10.220Z,3.35
2019-03-28T15:24:39.028Z,3.35
2019-03-28T15:27:07.863Z,6.15
2019-03-28T15:29:36.693Z,3.42
2019-03-28T15:32:05.509Z,5.58
2019-03-28T15:34:34.455Z,4.50
2019-03-28T15:37:03.638Z,4.42
2019-03-28T15:39:32.448Z,4.25
2019-03-28T15:42:01.249Z,4.22
2019-03-28T15:44:30.155Z,3.67
2019-03-28T15:46:59.112Z,4.80
2019-03-28T15:49:28.123Z,3.10
2019-03-28T15:51:57.142Z,3.90
2019-03-28T15:54:26.016Z,5.60
2019-03-28T15:56:54.832Z,4.20
2019-03-28T15:59:23.629Z,4.97
2019-03-28T16:01:52.443Z,3.80
2019-03-28T16:04:24.551Z,3.75
2019-03-28T16:06:51.751Z,4.22
2019-03-28T16:09:20.592Z,3.77
2019-03-28T16:12:01.752Z,4.22
2019-03-28T16:14:19.835Z,3.45
2019-03-28T16:16:48.664Z,3.85
2019-03-28T16:19:18.886Z,3.65
2019-03-28T16:21:47.715Z,3.50
2019-03-28T16:24:16.511Z,4.10
2019-03-28T16:26:45.324Z,3.20
2019-03-28T16:29:14.213Z,3.15
2019-03-28T16:31:42.987Z,3.20
2019-03-28T16:34:11.804Z,2.95
2019-03-28T16:36:40.640Z,3.05
2019-03-28T16:39:09.438Z,2.83
2019-03-28T16:41:38.251Z,2.02
2019-03-28T16:44:07.087Z,3.00
2019-03-28T16:46:35.940Z,1.92
2019-03-28T16:49:04.757Z,2.08
2019-03-28T16:51:34.831Z,2.20
2019-03-28T16:54:03.644Z,2.17
2019-03-28T16:56:32.468Z,1.80
2019-03-28T16:59:01.335Z,2.10
2019-03-28T17:01:30.144Z,3.47
2019-03-28T17:03:58.946Z,3.30
2019-03-28T17:06:27.940Z,4.33
2019-03-28T17:08:57.673Z,5.33
2019-03-28T17:11:26.492Z,4.60
2019-03-28T17:13:55.341Z,4.42
2019-03-28T17:16:24.141Z,4.80
2019-03-28T17:18:52.948Z,4.12
2019-03-28T17:21:23.356Z,5.20
2019-03-28T17:23:52.432Z,3.50
2019-03-28T17:26:21.219Z,4.75
2019-03-28T17:28:50.067Z,4.87
2019-03-28T17:31:19.066Z,4.30
2019-03-28T17:33:47.990Z,4.47
2019-03-28T17:36:16.826Z,4.95
2019-03-28T17:38:45.772Z,3.92
2019-03-28T17:41:14.607Z,4.97
2019-03-28T17:43:43.467Z,5.20
2019-03-28T17:46:12.609Z,4.95
2019-03-28T17:48:41.483Z,4.22
2019-03-28T17:51:10.659Z,4.30
2019-03-28T17:53:39.465Z,3.85
2019-03-28T17:56:08.326Z,3.92
2019-03-28T17:58:37.271Z,5.05
2019-03-28T18:01:06.570Z,3.47
2019-03-28T18:03:35.387Z,3.70
2019-03-28T18:06:04.428Z,3.25
2019-03-28T18:08:33.238Z,3.55
2019-03-28T18:11:02.142Z,2.70
2019-03-28T18:13:31.431Z,2.70
2019-03-28T18:16:00.501Z,2.70
2019-03-28T18:18:29.311Z,3.17
2019-03-28T18:20:58.137Z,3.45
2019-03-28T18:23:26.971Z,3.37
2019-03-28T18:25:55.802Z,2.67
2019-03-28T18:28:24.647Z,2.42
2019-03-28T18:30:53.458Z,2.83
2019-03-28T18:33:22.257Z,2.15
2019-03-28T18:35:51.095Z,2.42
2019-03-28T18:38:19.954Z,3.08
2019-03-28T18:40:48.711Z,3.92
2019-03-28T18:43:17.545Z,3.47
2019-03-28T18:45:46.373Z,4.70
2019-03-28T18:48:27.283Z,5.22
2019-03-28T18:50:45.720Z,4.78
2019-03-28T18:53:15.774Z,3.90
2019-03-28T18:55:44.573Z,3.83
2019-03-28T18:58:13.426Z,4.03
2019-03-28T19:00:42.279Z,3.98
2019-03-28T19:03:11.090Z,4.75
2019-03-28T19:05:40.045Z,5.35
2019-03-28T19:08:08.891Z,3.62
2019-03-28T19:10:38.011Z,3.45
2019-03-28T19:13:06.950Z,3.27
2019-03-28T19:15:35.754Z,3.10
2019-03-28T19:18:04.556Z,2.58
2019-03-28T19:20:33.461Z,3.55
2019-03-28T19:23:02.350Z,3.12
2019-03-28T19:25:31.147Z,3.27
2019-03-28T19:28:00.074Z,2.90
2019-03-28T19:30:31.226Z,2.85
2019-03-28T19:33:00.023Z,3.25
2019-03-28T19:35:33.193Z,2.33
2019-03-28T19:38:00.021Z,2.83
2019-03-28T19:40:29.052Z,3.87
2019-03-28T19:42:59.112Z,4.10
2019-03-28T19:45:35.712Z,3.17
2019-03-28T19:48:04.214Z,3.20
2019-03-28T19:50:32.987Z,2.85
2019-03-28T19:53:01.894Z,4.12
2019-03-28T19:55:30.832Z,2.55
2019-03-28T19:57:59.653Z,2.77
2019-03-28T20:00:28.659Z,2.90
2019-03-28T20:03:00.284Z,3.02
2019-03-28T20:05:28.029Z,3.10
2019-03-28T20:07:57.350Z,3.08
2019-03-28T20:10:26.192Z,3.05
2019-03-28T20:12:55.150Z,4.28
2019-03-28T20:15:27.279Z,3.05
2019-03-28T20:17:56.097Z,1.77
2019-03-28T20:20:24.902Z,2.80
2019-03-28T20:22:53.717Z,2.25
2019-03-28T20:25:22.652Z,1.77
2019-03-28T20:27:51.568Z,1.55
2019-03-28T20:30:20.541Z,1.90
2019-03-28T20:32:49.393Z,1.42
2019-03-28T20:35:18.210Z,1.30
2019-03-28T20:37:47.027Z,1.55
2019-03-28T20:40:16.294Z,2.27
2019-03-28T20:42:45.107Z,2.87
2019-03-28T20:45:14.483Z,2.65
2019-03-28T20:47:43.314Z,3.17
2019-03-28T20:50:13.007Z,2.10
2019-03-28T20:52:41.812Z,3.62
2019-03-28T20:55:10.960Z,3.05
2019-03-28T20:57:40.523Z,2.58
2019-03-28T21:00:10.757Z,2.72
2019-03-28T21:02:39.628Z,2.30
2019-03-28T21:05:09.888Z,1.92
2019-03-28T21:07:38.695Z,1.92
2019-03-28T21:10:09.837Z,2.20
2019-03-28T21:12:38.648Z,1.70
2019-03-28T21:15:08.739Z,2.00
2019-03-28T21:17:37.652Z,2.22
2019-03-28T21:20:08.160Z,2.20
2019-03-28T21:22:37.072Z,1.95
2019-03-28T21:25:07.190Z,2.05
2019-03-28T21:27:35.991Z,1.92
2019-03-28T21:30:06.888Z,1.75
2019-03-28T21:32:35.733Z,2.15
2019-03-28T21:35:06.871Z,1.70
2019-03-28T21:37:35.759Z,2.00
2019-03-28T21:40:06.002Z,3.00
2019-03-28T21:42:34.832Z,1.35
2019-03-28T21:45:04.695Z,3.17
2019-03-28T21:47:33.496Z,1.80
2019-03-28T21:50:02.303Z,1.50
2019-03-28T21:52:31.118Z,1.35
2019-03-28T21:54:59.951Z,1.25
2019-03-28T21:57:28.770Z,1.90
2019-03-28T21:59:57.566Z,1.40
2019-03-28T22:02:26.603Z,1.45
2019-03-28T22:04:55.414Z,1.30
2019-03-28T22:07:24.232Z,1.20
2019-03-28T22:09:53.063Z,1.12
2019-03-28T22:12:21.866Z,1.17
2019-03-28T22:14:50.666Z,1.35
2019-03-28T22:17:19.545Z,0.80
2019-03-28T22:19:48.305Z,4.22
2019-03-28T22:22:17.115Z,2.00
2019-03-28T22:24:45.942Z,1.40
2019-03-28T22:27:14.747Z,1.02
2019-03-28T22:29:43.648Z,1.30
2019-03-28T22:32:12.472Z,1.17
2019-03-28T22:34:41.281Z,1.32
2019-03-28T22:37:10.099Z,1.22
2019-03-28T22:39:39.070Z,1.52
2019-03-28T22:42:08.148Z,1.50
2019-03-28T22:44:36.974Z,1.32
2019-03-28T22:47:06.115Z,1.30
2019-03-28T22:49:35.261Z,1.40
2019-03-28T22:52:04.016Z,1.50
2019-03-28T22:54:32.855Z,1.25
2019-03-28T22:57:03.142Z,1.47
2019-03-28T22:59:31.937Z,1.20
2019-03-28T23:02:00.771Z,1.30
2019-03-28T23:04:29.574Z,1.10
2019-03-28T23:07:10.459Z,1.22
2019-03-28T23:09:28.872Z,1.40
2019-03-28T23:11:57.687Z,1.15
2019-03-28T23:14:26.479Z,1.10
2019-03-28T23:16:55.419Z,0.80
2019-03-28T23:19:24.193Z,0.95
2019-03-28T23:21:53.007Z,1.10
2019-03-28T23:24:21.851Z,1.27
2019-03-28T23:26:50.654Z,1.30
2019-03-28T23:29:19.453Z,1.50
2019-03-28T23:31:50.659Z,1.05
2019-03-28T23:34:18.741Z,0.98
2019-03-28T23:36:47.582Z,1.00
2019-03-28T23:39:16.370Z,1.50
2019-03-28T23:41:45.231Z,1.37
2019-03-28T23:44:14.033Z,1.55
2019-03-28T23:46:42.862Z,1.67
2019-03-28T23:49:11.687Z,1.75
2019-03-28T23:51:40.505Z,1.60
2019-03-28T23:54:09.323Z,2.12
2019-03-28T23:56:38.126Z,2.70
2019-03-28T23:59:06.927Z,2.37
